Time;durP1;ratioP1;P1;durP2;ratioP2;P2;SDS_P1;SDS_P2;PMS_P1;PMS_P2;Temp;Humidity;BMP_temperature;BMP_pressure;BME280_temperature;BME280_humidity;BME280_pressure;Samples;Min_cycle;Max_cycle;Signal;HPM_P1;HPM_P2
2021/12/04 00:00:06;;;;;;;1.40;1.17;;;6.90;99.90;;;;;;4901247;29;20455;-87
2021/12/04 00:02:36;;;;;;;1.93;1.37;;;6.80;99.90;;;;;;4899803;29;20480;-88
2021/12/04 00:05:07;;;;;;;1.40;1.30;;;6.90;99.90;;;;;;4891011;29;20530;-88
2021/12/04 00:07:51;;;;;;;1.73;1.20;;;6.90;99.90;;;;;;4907274;29;20956;-86
2021/12/04 00:13:35;;;;;;;1.60;1.37;;;6.90;99.90;;;;;;4893828;29;20499;-85
2021/12/04 00:16:06;;;;;;;3.60;1.30;;;6.90;99.90;;;;;;4894021;29;20465;-89
2021/12/04 00:18:42;;;;;;;1.70;1.40;;;6.90;99.90;;;;;;4893995;29;20496;-86
2021/12/04 00:21:46;;;;;;;1.23;1.13;;;6.90;99.90;;;;;;5051678;27;20602;-89
2021/12/04 00:24:24;;;;;;;3.13;1.60;;;6.80;99.90;;;;;;5007975;28;20943;-90
2021/12/04 00:26:58;;;;;;;1.10;1.07;;;6.70;99.90;;;;;;5006831;28;20449;-89
2021/12/04 00:29:38;;;;;;;1.60;1.50;;;6.70;99.90;;;;;;5004279;28;20826;-87
2021/12/04 00:32:12;;;;;;;1.57;1.30;;;6.60;99.90;;;;;;5006895;28;21569;-87
2021/12/04 00:34:55;;;;;;;1.40;1.30;;;6.60;99.90;;;;;;5004443;28;20468;-89
2021/12/04 00:37:54;;;;;;;1.80;1.70;;;6.70;99.90;;;;;;5025874;28;20498;-86
2021/12/04 00:49:06;;;;;;;1.37;1.23;;;6.70;99.90;;;;;;4942988;28;20492;-89
2021/12/04 00:49:15;;;;;;;1.70;1.40;;;6.80;99.90;;;;;;5009650;28;20467;-86
2021/12/04 00:51:53;;;;;;;1.70;1.40;;;6.90;99.90;;;;;;5009302;28;21256;-85
2021/12/04 00:54:23;;;;;;;1.37;1.30;;;7.00;99.90;;;;;;5024384;28;20466;-86
2021/12/04 00:56:56;;;;;;;2.30;1.37;;;7.00;99.90;;;;;;5008177;28;20462;-86
2021/12/04 00:59:29;;;;;;;1.60;1.50;;;7.10;99.90;;;;;;5003347;28;20961;-86
2021/12/04 01:02:06;;;;;;;1.60;1.50;;;7.10;99.90;;;;;;5019460;28;20463;-87
2021/12/04 01:04:39;;;;;;;1.60;1.20;;;7.10;99.90;;;;;;5012476;28;20439;-89
2021/12/04 01:07:07;;;;;;;1.33;1.33;;;7.00;99.90;;;;;;5014356;28;20532;-87
2021/12/04 01:09:33;;;;;;;1.30;1.20;;;6.90;99.90;;;;;;4933837;28;20471;-88
2021/12/04 01:12:03;;;;;;;1.53;1.43;;;6.90;99.90;;;;;;5010210;28;20986;-87
2021/12/04 01:14:33;;;;;;;1.30;1.30;;;6.90;99.90;;;;;;5009977;28;20568;-87
2021/12/04 01:17:01;;;;;;;1.60;1.50;;;6.70;99.90;;;;;;5007740;28;22223;-89
2021/12/04 01:19:39;;;;;;;1.50;1.30;;;6.80;99.90;;;;;;5013358;28;20986;-89
2021/12/04 01:22:09;;;;;;;1.90;1.70;;;6.80;99.90;;;;;;5007339;28;20458;-87
2021/12/04 01:24:36;;;;;;;1.23;1.23;;;6.80;99.90;;;;;;5024484;28;20458;-87
2021/12/04 01:27:08;;;;;;;2.20;1.43;;;6.90;99.90;;;;;;5008055;28;20468;-86
2021/12/04 01:29:39;;;;;;;1.50;1.40;;;7.00;99.90;;;;;;5025593;28;20454;-87
2021/12/04 01:32:20;;;;;;;1.67;1.43;;;7.00;99.90;;;;;;4999394;28;20984;-87
2021/12/04 01:34:47;;;;;;;1.40;1.30;;;6.90;99.90;;;;;;4992855;28;22017;-85
2021/12/04 01:37:16;;;;;;;1.40;1.30;;;6.90;99.90;;;;;;4995514;28;20456;-89
2021/12/04 01:39:51;;;;;;;1.30;1.20;;;6.90;99.90;;;;;;4996002;28;20463;-85
2021/12/04 01:42:21;;;;;;;1.20;1.17;;;6.70;99.90;;;;;;4998089;28;20510;-86
2021/12/04 01:44:50;;;;;;;1.20;1.10;;;6.60;99.90;;;;;;5013966;28;20468;-86
2021/12/04 01:47:26;;;;;;;0.87;0.87;;;6.70;99.90;;;;;;5028401;28;20454;-88
2021/12/04 01:49:56;;;;;;;1.30;1.20;;;6.60;99.90;;;;;;5009258;28;20474;-90
2021/12/04 01:52:23;;;;;;;1.13;1.03;;;6.60;99.90;;;;;;5011104;28;20500;-88
2021/12/04 01:54:59;;;;;;;1.50;1.33;;;6.70;99.90;;;;;;5014496;28;21965;-91
2021/12/04 01:57:44;;;;;;;1.43;1.33;;;6.70;99.90;;;;;;5022064;28;20445;-90
2021/12/04 02:00:13;;;;;;;0.93;0.90;;;6.80;99.90;;;;;;5014799;28;20493;-90
2021/12/04 02:02:51;;;;;;;1.50;1.40;;;6.70;99.90;;;;;;5010929;28;20483;-90
2021/12/04 02:05:30;;;;;;;1.00;1.00;;;6.90;99.90;;;;;;5019107;28;20450;-89
2021/12/04 02:08:05;;;;;;;1.07;1.07;;;6.90;99.90;;;;;;5005540;28;20455;-87
2021/12/04 02:10:50;;;;;;;1.60;1.50;;;6.80;99.90;;;;;;5007455;28;20460;-87
2021/12/04 02:13:28;;;;;;;1.53;1.43;;;6.70;99.90;;;;;;5003272;28;20585;-90
2021/12/04 02:16:27;;;;;;;1.73;1.63;;;6.60;99.90;;;;;;5023642;28;20556;-87
2021/12/04 02:19:14;;;;;;;1.70;1.53;;;6.60;99.90;;;;;;5000076;28;21233;-91
2021/12/04 02:25:02;;;;;;;2.33;2.13;;;6.50;99.90;;;;;;5003809;28;21217;-90
2021/12/04 02:27:47;;;;;;;2.63;2.43;;;6.50;99.90;;;;;;5004200;28;21815;-89
2021/12/04 02:30:52;;;;;;;1.97;1.80;;;6.60;99.90;;;;;;5002849;28;20467;-89
2021/12/04 02:33:33;;;;;;;2.37;2.17;;;6.60;99.90;;;;;;5011039;28;20561;-88
2021/12/04 02:36:08;;;;;;;2.50;2.30;;;6.40;99.90;;;;;;5005890;28;20462;-91
2021/12/04 02:38:41;;;;;;;2.63;2.43;;;6.40;99.90;;;;;;5006185;28;20578;-88
2021/12/04 02:41:23;;;;;;;3.80;2.70;;;6.50;99.90;;;;;;5006331;28;20839;-86
2021/12/04 02:43:55;;;;;;;2.30;2.10;;;6.60;99.90;;;;;;5023594;28;20475;-90
2021/12/04 02:46:25;;;;;;;2.70;2.33;;;6.50;99.90;;;;;;5023299;28;20479;-90
2021/12/04 02:49:07;;;;;;;2.80;2.60;;;6.20;99.90;;;;;;5025665;28;20456;-91
2021/12/04 02:51:44;;;;;;;3.03;2.57;;;6.20;99.90;;;;;;5039878;28;20460;-92
2021/12/04 02:54:27;;;;;;;2.80;2.60;;;6.30;99.90;;;;;;5027567;28;20539;-92
2021/12/04 02:57:10;;;;;;;3.13;2.57;;;6.30;99.90;;;;;;5029780;28;20486;-93
2021/12/04 02:59:51;;;;;;;3.17;2.33;;;6.10;99.90;;;;;;5029219;28;20497;-91
2021/12/04 03:02:31;;;;;;;2.93;2.53;;;6.30;99.90;;;;;;5007486;28;20988;-87
2021/12/04 03:05:08;;;;;;;2.33;2.07;;;6.10;99.90;;;;;;5005828;28;20578;-87
2021/12/04 03:07:40;;;;;;;3.00;2.80;;;6.20;99.90;;;;;;5020851;28;20451;-90
2021/12/04 03:10:29;;;;;;;4.50;3.30;;;6.30;99.90;;;;;;5014480;28;20459;-91
2021/12/04 03:13:04;;;;;;;2.43;2.23;;;6.50;99.90;;;;;;5006529;28;20470;-88
2021/12/04 03:15:56;;;;;;;2.47;2.27;;;6.60;99.90;;;;;;5006815;28;20496;-87
2021/12/04 03:18:40;;;;;;;2.47;2.27;;;6.30;99.90;;;;;;5006437;28;20466;-88
2021/12/04 03:21:30;;;;;;;3.10;2.90;;;6.20;99.90;;;;;;5019380;28;21018;-88
2021/12/04 03:24:12;;;;;;;3.10;2.43;;;6.20;99.90;;;;;;5004184;28;21066;-87
2021/12/04 03:26:45;;;;;;;2.70;2.50;;;6.20;99.90;;;;;;5004612;28;20560;-88
2021/12/04 03:29:26;;;;;;;2.77;2.57;;;6.30;99.90;;;;;;5006683;28;20475;-88
2021/12/04 03:40:51;;;;;;;2.40;2.20;;;6.60;99.90;;;;;;4995381;28;20586;-87
2021/12/04 03:43:31;;;;;;;3.17;2.40;;;6.30;99.90;;;;;;4995152;28;20538;-88
2021/12/04 03:46:15;;;;;;;4.00;2.57;;;6.40;99.90;;;;;;4999271;28;21912;-87
2021/12/04 03:48:54;;;;;;;2.53;2.33;;;6.50;99.90;;;;;;4993539;28;20489;-88
2021/12/04 03:51:37;;;;;;;2.63;2.30;;;6.20;99.90;;;;;;4992604;28;20534;-87
2021/12/04 03:54:10;;;;;;;3.23;2.70;;;6.10;99.90;;;;;;4995624;28;20482;-87
2021/12/04 03:56:46;;;;;;;2.60;2.30;;;6.20;99.90;;;;;;4990235;28;20540;-89
2021/12/04 03:59:43;;;;;;;2.37;2.17;;;6.20;99.90;;;;;;4984881;28;21565;-87
2021/12/04 04:02:23;;;;;;;2.17;2.03;;;6.10;99.90;;;;;;4989900;28;20478;-87
2021/12/04 04:04:55;;;;;;;2.57;2.33;;;6.30;99.90;;;;;;4991448;28;20467;-86
2021/12/04 04:07:28;;;;;;;2.40;2.20;;;6.30;99.90;;;;;;4995230;28;20462;-87
2021/12/04 04:09:58;;;;;;;2.53;2.20;;;6.30;99.90;;;;;;4993543;28;20463;-89
2021/12/04 04:12:28;;;;;;;2.17;1.80;;;6.30;99.90;;;;;;4990106;28;20488;-87
2021/12/04 04:14:56;;;;;;;2.20;1.90;;;6.30;99.90;;;;;;4992766;28;20460;-88
2021/12/04 04:17:31;;;;;;;2.67;2.47;;;6.40;99.90;;;;;;4994141;28;20473;-86
2021/12/04 04:20:22;;;;;;;2.77;2.57;;;6.30;99.90;;;;;;4992767;28;20453;-88
2021/12/04 04:22:52;;;;;;;2.33;2.13;;;6.10;99.90;;;;;;4992859;28;20477;-88
2021/12/04 04:25:44;;;;;;;2.40;2.30;;;6.30;99.90;;;;;;4989416;28;20431;-87
2021/12/04 04:28:16;;;;;;;2.40;2.20;;;6.30;99.90;;;;;;4991829;28;20467;-85
2021/12/04 04:30:56;;;;;;;1.83;1.70;;;6.30;99.90;;;;;;4990859;28;20479;-89
2021/12/04 04:33:26;;;;;;;1.83;1.73;;;6.20;99.90;;;;;;5009028;28;21141;-86
2021/12/04 04:36:35;;;;;;;2.10;1.90;;;6.10;99.90;;;;;;4990624;28;20482;-88
2021/12/04 05:13:00;;;;;;;2.63;2.00;;;6.20;99.90;;;;;;4997739;28;20975;-85
2021/12/04 05:18:37;;;;;;;2.27;2.07;;;6.30;99.90;;;;;;4998115;28;20654;-90
2021/12/04 05:21:30;;;;;;;2.07;1.87;;;6.20;99.90;;;;;;5007795;28;20483;-88
2021/12/04 05:24:07;;;;;;;2.27;1.73;;;6.30;99.90;;;;;;5001622;28;20528;-90
2021/12/04 05:26:42;;;;;;;1.70;1.60;;;6.40;99.90;;;;;;5022906;28;20454;-88
2021/12/04 05:29:11;;;;;;;2.53;1.80;;;6.20;99.90;;;;;;5005558;28;20479;-89
2021/12/04 05:31:52;;;;;;;2.60;2.00;;;6.30;99.90;;;;;;4998670;28;20446;-86
2021/12/04 05:34:25;;;;;;;1.77;1.67;;;6.40;99.90;;;;;;4983612;23;20841;-89
2021/12/04 05:37:04;;;;;;;2.07;1.50;;;6.20;99.90;;;;;;4990980;28;20478;-88
2021/12/04 05:39:44;;;;;;;2.17;2.07;;;6.20;99.90;;;;;;4988496;28;20478;-86
2021/12/04 05:42:21;;;;;;;1.27;1.17;;;6.40;99.90;;;;;;4986462;28;20598;-86
2021/12/04 05:45:21;;;;;;;1.80;1.60;;;6.30;99.90;;;;;;4960850;28;20555;-84
2021/12/04 05:52:08;;;;;;;2.13;1.97;;;6.50;99.90;;;;;;4958286;28;20461;-87
2021/12/04 05:57:13;;;;;;;2.50;2.00;;;6.50;99.90;;;;;;4958561;28;20469;-86
2021/12/04 05:59:57;;;;;;;1.60;1.50;;;6.60;99.90;;;;;;4959706;28;20515;-87
2021/12/04 06:02:34;;;;;;;1.10;1.00;;;6.60;99.90;;;;;;4957053;28;20496;-85
2021/12/04 06:05:17;;;;;;;1.30;1.30;;;6.70;99.90;;;;;;4963594;28;20460;-86
2021/12/04 06:07:48;;;;;;;1.70;1.60;;;6.60;99.90;;;;;;4961762;28;20569;-85
2021/12/04 06:10:17;;;;;;;2.20;1.60;;;6.50;99.90;;;;;;4982794;28;20459;-90
2021/12/04 06:12:53;;;;;;;1.87;1.57;;;6.60;99.90;;;;;;4956674;28;20485;-86
2021/12/04 06:15:33;;;;;;;1.30;1.20;;;6.60;99.90;;;;;;4957818;28;20943;-86
2021/12/04 06:18:01;;;;;;;1.57;1.47;;;6.60;99.90;;;;;;4956469;28;20475;-89
2021/12/04 06:23:22;;;;;;;1.60;1.50;;;6.50;99.90;;;;;;4957406;28;20558;-87
2021/12/04 06:25:56;;;;;;;1.97;1.40;;;6.60;99.90;;;;;;4965724;28;20485;-87
2021/12/04 06:28:36;;;;;;;1.70;1.60;;;6.40;99.90;;;;;;4963576;28;20476;-90
2021/12/04 06:31:26;;;;;;;1.67;1.57;;;6.40;99.90;;;;;;4962499;28;21897;-87
2021/12/04 06:34:00;;;;;;;3.37;1.63;;;6.50;99.90;;;;;;4957583;28;20487;-87
2021/12/04 06:36:34;;;;;;;4.27;2.10;;;6.50;99.90;;;;;;4959898;28;20460;-85
2021/12/04 06:39:16;;;;;;;2.20;1.83;;;6.50;99.90;;;;;;4957257;28;21048;-88
2021/12/04 06:41:48;;;;;;;1.83;1.70;;;6.20;99.90;;;;;;4954382;28;20495;-88
2021/12/04 06:44:18;;;;;;;1.90;1.80;;;6.10;99.90;;;;;;4963331;28;20481;-86
2021/12/04 06:46:54;;;;;;;1.80;1.70;;;6.50;99.90;;;;;;4963278;28;20506;-88
2021/12/04 06:49:26;;;;;;;2.27;2.07;;;6.50;99.90;;;;;;4957805;28;20467;-86
2021/12/04 06:52:05;;;;;;;2.00;1.73;;;6.60;99.90;;;;;;4961436;28;20461;-87
2021/12/04 06:54:39;;;;;;;2.30;2.10;;;6.60;99.90;;;;;;4956273;28;21070;-88
2021/12/04 06:57:13;;;;;;;1.90;1.80;;;6.50;99.90;;;;;;4957163;28;20472;-86
2021/12/04 07:00:01;;;;;;;1.97;1.87;;;6.30;99.90;;;;;;4962819;28;20441;-89
2021/12/04 07:02:39;;;;;;;2.70;2.50;;;6.40;99.90;;;;;;4967371;28;20495;-86
2021/12/04 07:05:16;;;;;;;2.20;2.10;;;6.40;99.90;;;;;;4957137;28;20476;-87
2021/12/04 07:07:46;;;;;;;2.30;2.10;;;6.40;99.90;;;;;;4954868;28;20561;-88
2021/12/04 07:10:20;;;;;;;3.63;1.87;;;6.40;99.90;;;;;;4957838;28;20458;-87
2021/12/04 07:12:49;;;;;;;2.00;1.90;;;6.40;99.90;;;;;;4950004;28;20819;-84
2021/12/04 07:15:17;;;;;;;2.20;2.10;;;6.30;99.90;;;;;;4951471;28;21691;-86
2021/12/04 07:17:51;;;;;;;2.47;2.27;;;6.50;99.90;;;;;;4968929;28;20532;-91
2021/12/04 07:20:20;;;;;;;2.97;2.37;;;6.30;99.90;;;;;;4953743;28;20500;-89
2021/12/04 07:22:50;;;;;;;2.33;1.93;;;6.20;99.90;;;;;;4953207;28;20487;-86
2021/12/04 07:25:26;;;;;;;3.53;2.43;;;6.60;99.90;;;;;;4962492;28;20503;-90
2021/12/04 07:28:04;;;;;;;2.77;2.57;;;6.70;99.90;;;;;;4958385;28;20570;-90
2021/12/04 07:30:48;;;;;;;2.60;2.40;;;6.70;99.90;;;;;;4960679;28;20808;-86
2021/12/04 07:33:16;;;;;;;2.63;2.43;;;6.60;99.90;;;;;;4974054;28;21115;-87
2021/12/04 07:35:47;;;;;;;3.13;2.90;;;6.50;99.90;;;;;;4956390;28;20480;-85
2021/12/04 07:38:17;;;;;;;2.30;2.20;;;6.30;99.90;;;;;;4970747;28;20978;-91
2021/12/04 07:40:50;;;;;;;5.20;2.27;;;6.30;99.90;;;;;;4970866;28;20473;-86
2021/12/04 07:43:27;;;;;;;2.80;2.60;;;6.40;99.90;;;;;;4984626;28;20488;-88
2021/12/04 07:46:14;;;;;;;3.43;2.57;;;6.20;99.90;;;;;;4985057;28;20562;-86
2021/12/04 07:48:50;;;;;;;2.50;2.30;;;6.20;99.90;;;;;;4974044;28;20516;-89
2021/12/04 07:51:27;;;;;;;2.57;2.37;;;6.10;99.90;;;;;;4970167;28;21203;-87
2021/12/04 07:54:01;;;;;;;2.63;2.43;;;6.40;99.90;;;;;;4956437;28;21968;-87
2021/12/04 08:00:11;;;;;;;3.93;2.40;;;6.50;99.90;;;;;;4937287;28;20504;-87
2021/12/04 08:02:50;;;;;;;3.23;2.40;;;6.50;99.90;;;;;;4962152;28;22092;-86
2021/12/04 08:05:27;;;;;;;4.67;3.00;;;6.50;99.90;;;;;;4959165;28;21050;-86
2021/12/04 08:08:03;;;;;;;2.93;2.73;;;6.40;99.90;;;;;;4950822;28;20996;-87
2021/12/04 08:10:38;;;;;;;3.17;2.87;;;6.20;99.90;;;;;;4951858;28;20458;-87
2021/12/04 08:13:12;;;;;;;2.73;2.47;;;6.40;99.90;;;;;;4976335;23;20505;-88
2021/12/04 08:15:49;;;;;;;3.60;2.97;;;6.60;99.90;;;;;;4987019;28;20468;-86
2021/12/04 08:18:36;;;;;;;2.70;2.50;;;6.60;99.90;;;;;;4980752;28;20481;-88
2021/12/04 08:21:15;;;;;;;2.77;2.57;;;6.70;99.90;;;;;;4980201;28;20483;-87
2021/12/04 08:23:42;;;;;;;2.70;2.50;;;6.40;99.90;;;;;;4993242;28;20542;-87
2021/12/04 08:26:12;;;;;;;3.27;3.07;;;6.20;99.90;;;;;;5001811;28;20462;-90
2021/12/04 08:31:37;;;;;;;3.67;3.37;;;6.50;99.90;;;;;;5034247;23;20493;-88
2021/12/04 08:34:31;;;;;;;4.03;3.63;;;6.40;99.90;;;;;;4892896;29;20485;-86
2021/12/04 08:37:13;;;;;;;6.33;3.73;;;6.60;99.90;;;;;;4877876;29;20476;-88
2021/12/04 08:39:54;;;;;;;3.90;3.13;;;6.30;99.90;;;;;;4874316;29;20477;-86
2021/12/04 08:42:33;;;;;;;2.80;2.60;;;6.30;99.90;;;;;;4899621;29;20634;-87
2021/12/04 08:45:15;;;;;;;2.90;2.70;;;6.50;99.90;;;;;;4866494;29;21237;-86
2021/12/04 08:47:57;;;;;;;2.77;2.57;;;6.70;99.90;;;;;;4838324;29;21070;-87
2021/12/04 08:54:08;;;;;;;3.50;3.20;;;6.80;99.90;;;;;;4888061;29;20516;-87
2021/12/04 08:56:44;;;;;;;3.00;2.80;;;6.90;99.90;;;;;;4879742;29;20471;-83
2021/12/04 08:59:27;;;;;;;2.90;2.60;;;6.90;99.90;;;;;;4884784;29;20539;-86
2021/12/04 09:02:08;;;;;;;2.80;2.60;;;6.70;99.90;;;;;;4858189;29;21577;-89
2021/12/04 09:08:15;;;;;;;3.70;2.83;;;6.90;99.90;;;;;;4885555;29;20488;-89
2021/12/04 09:14:45;;;;;;;3.17;2.87;;;6.80;99.90;;;;;;4895207;29;20503;-87
2021/12/04 09:18:04;;;;;;;2.70;2.50;;;6.80;99.90;;;;;;4884094;29;20465;-87
2021/12/04 09:20:50;;;;;;;3.67;3.37;;;7.20;99.90;;;;;;4878558;29;20491;-88
2021/12/04 09:23:50;;;;;;;2.60;2.40;;;7.20;99.90;;;;;;4885308;29;20501;-87
2021/12/04 09:29:50;;;;;;;12.73;9.97;;;8.00;99.90;;;;;;4848014;29;20506;-89
2021/12/04 09:36:40;;;;;;;2.47;2.37;;;9.20;99.90;;;;;;4797986;29;20475;-88
2021/12/04 10:13:58;;;;;;;2.87;2.63;;;7.70;99.90;;;;;;4935182;23;20594;-87
2021/12/04 10:16:58;;;;;;;2.83;2.63;;;7.70;99.90;;;;;;4937091;29;20481;-89
2021/12/04 10:19:40;;;;;;;2.97;2.70;;;7.70;99.90;;;;;;4937658;29;20453;-89
2021/12/04 10:22:36;;;;;;;3.20;3.00;;;7.90;99.90;;;;;;4933473;29;20497;-86
2021/12/04 10:34:05;;;;;;;2.70;2.50;;;8.00;99.90;;;;;;4939395;29;20570;-88
2021/12/04 10:36:46;;;;;;;3.23;2.93;;;7.70;99.90;;;;;;4941961;28;20464;-88
2021/12/04 10:39:20;;;;;;;2.83;2.33;;;7.60;99.90;;;;;;4941853;28;20467;-87
2021/12/04 10:42:05;;;;;;;2.80;2.60;;;7.80;99.90;;;;;;4936816;28;20519;-86
2021/12/04 10:44:44;;;;;;;2.47;2.37;;;7.80;99.90;;;;;;4935095;29;20500;-89
2021/12/04 10:47:56;;;;;;;3.40;3.10;;;7.80;99.90;;;;;;4928956;28;20473;-87
2021/12/04 10:53:56;;;;;;;2.07;1.97;;;8.00;99.90;;;;;;4947800;29;20493;-87
2021/12/04 10:57:00;;;;;;;2.23;1.93;;;8.00;99.90;;;;;;4938105;28;20963;-87
2021/12/04 11:00:16;;;;;;;1.80;1.70;;;8.00;99.90;;;;;;4932473;28;20480;-87
2021/12/04 11:02:51;;;;;;;2.33;2.13;;;7.70;99.90;;;;;;4932297;28;20497;-89
2021/12/04 11:42:17;;;;;;;1.80;1.70;;;8.00;99.90;;;;;;4938620;29;20444;-89
2021/12/04 11:45:19;;;;;;;2.30;2.10;;;7.80;99.90;;;;;;4937512;28;20445;-86
2021/12/04 11:48:08;;;;;;;1.87;1.77;;;8.10;99.90;;;;;;4935644;28;20475;-86
2021/12/04 11:50:39;;;;;;;2.50;2.30;;;8.10;99.90;;;;;;4936986;28;20488;-88
2021/12/04 11:53:24;;;;;;;2.60;2.40;;;8.00;99.90;;;;;;4933944;29;20481;-87
2021/12/04 11:56:28;;;;;;;1.93;1.83;;;7.90;99.90;;;;;;4944288;28;20535;-87
2021/12/04 11:59:42;;;;;;;2.13;1.93;;;7.70;99.90;;;;;;4937352;28;20472;-89
2021/12/04 12:02:29;;;;;;;2.20;2.10;;;7.90;99.90;;;;;;4937441;28;20524;-87
2021/12/04 12:05:19;;;;;;;4.00;2.13;;;7.90;99.90;;;;;;4940244;29;20463;-88
2021/12/04 12:08:08;;;;;;;2.83;2.43;;;8.10;99.90;;;;;;4937709;28;20557;-87
2021/12/04 12:14:35;;;;;;;2.27;2.07;;;7.80;99.90;;;;;;4940129;28;20544;-88
2021/12/04 12:17:49;;;;;;;4.90;2.10;;;8.00;99.90;;;;;;4937604;29;20465;-89
2021/12/04 12:27:39;;;;;;;3.13;2.80;;;8.10;99.90;;;;;;4935090;28;20475;-87
2021/12/04 12:36:22;;;;;;;1.70;1.60;;;8.00;99.90;;;;;;4941355;28;20465;-88
2021/12/04 12:38:53;;;;;;;2.30;2.10;;;8.10;99.90;;;;;;4938978;29;20657;-89
2021/12/04 12:44:49;;;;;;;2.10;1.90;;;8.00;99.90;;;;;;5251433;23;20498;-86
2021/12/04 12:47:31;;;;;;;2.50;2.30;;;7.90;99.90;;;;;;4901852;29;20494;-85
2021/12/04 12:50:05;;;;;;;2.70;2.13;;;7.90;99.90;;;;;;4885339;29;20485;-88
2021/12/04 12:55:42;;;;;;;2.70;2.50;;;7.90;99.90;;;;;;4899476;29;20529;-86
2021/12/04 12:58:17;;;;;;;1.90;1.73;;;7.90;99.90;;;;;;4882832;29;21357;-88
2021/12/04 13:13:46;;;;;;;1.77;1.67;;;7.50;99.90;;;;;;4904384;29;20548;-87
2021/12/04 13:16:31;;;;;;;1.97;1.70;;;7.70;99.90;;;;;;4890462;29;20476;-89
2021/12/04 13:23:25;;;;;;;2.27;2.10;;;7.80;99.90;;;;;;4853948;29;21024;-87
2021/12/04 13:26:15;;;;;;;4.10;1.50;;;7.90;99.90;;;;;;4853544;29;21150;-89
2021/12/04 13:28:50;;;;;;;2.00;1.80;;;7.90;99.90;;;;;;4888642;29;20539;-90
2021/12/04 13:31:48;;;;;;;1.90;1.80;;;7.90;99.90;;;;;;4890126;29;20474;-89
2021/12/04 13:34:30;;;;;;;2.73;2.13;;;8.00;99.90;;;;;;4983750;23;20518;-87
2021/12/04 13:37:18;;;;;;;3.47;1.80;;;7.80;99.90;;;;;;4920048;29;20476;-87
2021/12/04 13:40:20;;;;;;;1.87;1.77;;;7.70;99.90;;;;;;4931138;28;20458;-89
2021/12/04 13:42:56;;;;;;;2.10;1.90;;;7.70;99.90;;;;;;4920055;28;20486;-89
2021/12/04 13:49:57;;;;;;;2.43;2.03;;;7.80;99.90;;;;;;4867996;29;20455;-88
2021/12/04 13:55:34;;;;;;;2.37;2.17;;;7.80;99.90;;;;;;5134766;23;20492;-87
2021/12/04 13:59:11;;;;;;;2.20;2.00;;;8.00;99.90;;;;;;4886648;29;20454;-88
2021/12/04 14:02:13;;;;;;;;;;;;;;;;;;;;;
2021/12/04 14:05:21;;;;;;;3.80;2.63;;;8.10;99.90;;;;;;4910763;29;20541;-87
2021/12/04 14:08:27;;;;;;;2.63;2.43;;;8.00;99.90;;;;;;4910905;29;20483;-88
2021/12/04 14:11:39;;;;;;;4.00;2.83;;;7.80;99.90;;;;;;4911481;29;20479;-86
2021/12/04 14:14:47;;;;;;;2.60;2.40;;;7.80;99.90;;;;;;4913688;29;20498;-87
2021/12/04 14:17:53;;;;;;;4.30;2.00;;;7.50;99.90;;;;;;4908636;29;20457;-89
2021/12/04 14:20:36;;;;;;;2.73;2.50;;;7.50;99.90;;;;;;4908625;29;20538;-86
2021/12/04 14:23:17;;;;;;;2.60;2.40;;;7.70;99.90;;;;;;4918369;29;20499;-87
2021/12/04 14:26:19;;;;;;;2.63;2.37;;;7.80;99.90;;;;;;4910351;29;21406;-88
2021/12/04 14:29:12;;;;;;;2.30;2.10;;;7.60;99.90;;;;;;4905138;29;20455;-87
2021/12/04 14:31:53;;;;;;;2.73;2.53;;;7.80;99.90;;;;;;4901787;29;20450;-87
2021/12/04 14:34:40;;;;;;;2.70;2.50;;;7.80;99.90;;;;;;4902143;29;20463;-87
2021/12/04 14:37:57;;;;;;;2.47;2.27;;;7.60;99.90;;;;;;4875573;29;20452;-88
2021/12/04 14:40:57;;;;;;;2.60;2.40;;;7.80;99.90;;;;;;4883787;29;20560;-87
2021/12/04 14:43:43;;;;;;;3.17;2.87;;;7.80;99.90;;;;;;4865742;29;20547;-87
2021/12/04 14:46:45;;;;;;;3.13;2.80;;;7.90;99.90;;;;;;4887135;29;20514;-90
2021/12/04 14:53:17;;;;;;;3.10;2.80;;;7.90;99.90;;;;;;4877577;29;20477;-86
2021/12/04 14:56:02;;;;;;;4.40;2.83;;;7.80;99.90;;;;;;4889425;29;20480;-88
2021/12/04 14:58:38;;;;;;;3.70;3.40;;;7.90;99.90;;;;;;4889350;29;20487;-88
2021/12/04 15:01:20;;;;;;;6.73;3.40;;;7.90;99.90;;;;;;4910830;29;20463;-87
2021/12/04 15:04:06;;;;;;;4.00;3.30;;;7.90;99.90;;;;;;4912524;23;20485;-87
2021/12/04 15:07:22;;;;;;;4.40;4.00;;;7.90;99.90;;;;;;4901750;29;20462;-85
2021/12/04 15:10:57;;;;;;;4.40;3.90;;;7.60;99.90;;;;;;4850849;29;20448;-87
2021/12/04 15:17:24;;;;;;;5.03;4.60;;;7.60;99.90;;;;;;4828109;29;20495;-89
2021/12/04 15:24:29;;;;;;;8.03;6.40;;;7.70;99.90;;;;;;4833346;29;20499;-86
2021/12/04 15:27:12;;;;;;;8.00;5.57;;;7.50;99.90;;;;;;4838180;29;20463;-88
2021/12/04 15:29:59;;;;;;;6.07;5.47;;;7.40;99.90;;;;;;4860511;29;20454;-90
2021/12/04 15:33:01;;;;;;;5.83;5.30;;;7.30;99.90;;;;;;4846740;29;20490;-89
2021/12/04 15:35:50;;;;;;;5.77;4.17;;;7.30;99.90;;;;;;4845973;29;20478;-89
2021/12/04 15:38:56;;;;;;;8.07;5.40;;;7.30;99.90;;;;;;4854334;29;20566;-85
2021/12/04 15:41:43;;;;;;;10.10;9.03;;;7.30;99.90;;;;;;4828000;29;21093;-86
2021/12/04 15:51:15;;;;;;;4.30;3.87;;;7.30;99.90;;;;;;4875152;29;20496;-87
2021/12/04 15:54:20;;;;;;;3.97;3.50;;;7.20;99.90;;;;;;4885516;29;21102;-87
2021/12/04 15:57:05;;;;;;;3.47;3.17;;;7.20;99.90;;;;;;4875745;29;20477;-87
2021/12/04 15:59:52;;;;;;;3.57;2.90;;;7.10;99.90;;;;;;4893650;29;20461;-83
2021/12/04 16:02:34;;;;;;;2.57;2.37;;;7.10;99.90;;;;;;4871685;29;21228;-86
2021/12/04 16:09:09;;;;;;;3.00;2.70;;;7.10;99.90;;;;;;4877459;29;20446;-87
2021/12/04 16:12:15;;;;;;;3.70;3.23;;;7.10;99.90;;;;;;4848362;29;20495;-87
2021/12/04 16:15:30;;;;;;;4.50;3.43;;;7.20;99.90;;;;;;4868306;29;21403;-86
2021/12/04 16:18:19;;;;;;;2.60;2.40;;;7.10;99.90;;;;;;4869949;29;20456;-87
2021/12/04 16:21:01;;;;;;;1.90;1.80;;;7.10;99.90;;;;;;4900194;29;20447;-89
2021/12/04 16:24:12;;;;;;;1.53;1.43;;;7.10;99.90;;;;;;4912523;29;20486;-88
2021/12/04 16:27:03;;;;;;;2.37;2.17;;;7.10;99.90;;;;;;4910122;29;20538;-88
2021/12/04 16:36:21;;;;;;;1.77;1.67;;;7.20;99.90;;;;;;4924084;29;20593;-87
2021/12/04 16:39:16;;;;;;;2.30;2.10;;;7.20;99.90;;;;;;4903535;29;20530;-88
2021/12/04 16:41:55;;;;;;;2.70;1.90;;;7.20;99.90;;;;;;4902039;29;20478;-90
2021/12/04 16:50:03;;;;;;;2.73;2.53;;;7.10;99.90;;;;;;4916105;29;21095;-87
2021/12/04 16:56:16;;;;;;;3.60;3.30;;;7.10;99.90;;;;;;4903064;29;21180;-88
2021/12/04 16:59:28;;;;;;;3.70;3.40;;;7.20;99.90;;;;;;4909773;29;20486;-89
2021/12/04 17:02:20;;;;;;;3.63;3.30;;;7.20;99.90;;;;;;4893205;29;21280;-91
2021/12/04 17:05:10;;;;;;;4.27;3.57;;;7.20;99.90;;;;;;4891865;29;20472;-89
2021/12/04 17:08:36;;;;;;;3.60;3.30;;;7.20;99.90;;;;;;4874284;29;20530;-90
2021/12/04 17:11:16;;;;;;;6.70;4.43;;;7.20;99.90;;;;;;4860369;29;20442;-90
2021/12/04 17:13:47;;;;;;;4.37;3.97;;;7.20;99.90;;;;;;4853164;29;20494;-91
2021/12/04 17:16:42;;;;;;;;;;;;;;;;;;;;;
2021/12/04 17:19:20;;;;;;;6.17;5.57;;;7.30;99.90;;;;;;4903460;29;21199;-90
2021/12/04 17:22:07;;;;;;;4.70;4.00;;;7.30;99.90;;;;;;4857920;29;20547;-91
2021/12/04 17:24:46;;;;;;;4.50;4.10;;;7.30;99.90;;;;;;4860705;29;20496;-90
2021/12/04 17:27:46;;;;;;;5.93;4.43;;;7.30;99.90;;;;;;4883933;29;20482;-88
2021/12/04 17:30:27;;;;;;;4.77;4.27;;;7.40;99.90;;;;;;4887380;29;20557;-91
2021/12/04 17:33:08;;;;;;;5.43;4.43;;;7.40;99.90;;;;;;4889439;29;20482;-90
2021/12/04 17:35:47;;;;;;;4.40;4.00;;;7.40;99.90;;;;;;4861673;29;20466;-88
2021/12/04 17:38:49;;;;;;;5.77;4.60;;;7.40;99.90;;;;;;4895907;29;20460;-88
2021/12/04 17:41:28;;;;;;;6.80;4.90;;;7.30;99.90;;;;;;4897743;29;20461;-89
2021/12/04 17:44:23;;;;;;;7.10;5.50;;;7.40;99.90;;;;;;4915255;29;20491;-88
2021/12/04 17:47:14;;;;;;;6.00;5.17;;;7.40;99.90;;;;;;4902612;29;20538;-89
2021/12/04 17:49:50;;;;;;;7.23;4.90;;;7.40;99.90;;;;;;4895941;29;20472;-90
2021/12/04 17:52:42;;;;;;;6.17;5.07;;;7.40;99.90;;;;;;4899851;29;20513;-90
2021/12/04 17:55:36;;;;;;;6.17;4.60;;;7.40;99.90;;;;;;4899150;29;20478;-88
2021/12/04 17:58:43;;;;;;;5.43;4.70;;;7.40;99.90;;;;;;4900404;29;20848;-89
2021/12/04 18:01:57;;;;;;;6.30;3.83;;;7.50;99.90;;;;;;4890700;29;20534;-90
2021/12/04 18:31:38;;;;;;;;;;;;;;;;;;;;;
2021/12/04 18:34:24;;;;;;;10.93;6.87;;;7.50;99.90;;;;;;4879576;29;20544;-87
2021/12/04 18:37:14;;;;;;;9.37;5.83;;;7.40;99.90;;;;;;4876926;29;20471;-91
2021/12/04 18:40:16;;;;;;;8.60;6.43;;;7.40;99.90;;;;;;4872741;29;20456;-92
2021/12/04 18:43:33;;;;;;;;;;;;;;;;;;;;;
2021/12/04 18:46:50;;;;;;;11.40;6.43;;;7.40;99.90;;;;;;4878115;29;20440;-90
2021/12/04 18:49:33;;;;;;;8.60;6.00;;;7.40;99.90;;;;;;4880056;29;20542;-87
2021/12/04 18:52:20;;;;;;;;;;;;;;;;;;;;;
2021/12/04 18:55:10;;;;;;;8.20;4.73;;;7.30;99.90;;;;;;4878362;29;20520;-90
2021/12/04 18:58:21;;;;;;;6.60;4.77;;;7.30;99.90;;;;;;4885099;29;20464;-88
2021/12/04 19:01:06;;;;;;;8.97;4.97;;;7.20;99.90;;;;;;4894599;29;20503;-89
2021/12/04 19:04:04;;;;;;;9.63;5.40;;;7.30;99.90;;;;;;4875080;29;20525;-91
2021/12/04 19:07:08;;;;;;;11.53;7.53;;;7.20;99.90;;;;;;4868003;29;20466;-91
2021/12/04 19:09:56;;;;;;;7.23;5.50;;;7.20;99.90;;;;;;4865620;29;20578;-90
2021/12/04 19:12:43;;;;;;;8.40;5.20;;;7.20;99.90;;;;;;4884140;29;20477;-92
2021/12/04 19:15:35;;;;;;;10.13;5.30;;;7.30;99.90;;;;;;4883924;29;20507;-91